sensor_id;sensor_type;location;lat;lon;timestamp;P1;durP1;ratioP1;P2;durP2;ratioP2
51010;SDS011;37038;50.182;8.624;2023-06-01T00:01:43;8.90;;;3.17;;
51010;SDS011;37038;50.182;8.624;2023-06-01T00:04:31;4.85;;;2.90;;
51010;SDS011;37038;50.182;8.624;2023-06-01T00:07:19;6.78;;;3.47;;
51010;SDS011;37038;50.182;8.624;2023-06-01T00:10:08;5.93;;;3.33;;
51010;SDS011;37038;50.182;8.624;2023-06-01T00:12:56;8.68;;;3.33;;
51010;SDS011;37038;50.182;8.624;2023-06-01T00:15:44;5.85;;;3.22;;
51010;SDS011;37038;50.182;8.624;2023-06-01T00:18:32;8.40;;;3.08;;
51010;SDS011;37038;50.182;8.624;2023-06-01T00:21:23;6.03;;;3.10;;
51010;SDS011;37038;50.182;8.624;2023-06-01T00:24:11;7.30;;;3.45;;
51010;SDS011;37038;50.182;8.624;2023-06-01T00:26:58;5.20;;;3.15;;
51010;SDS011;37038;50.182;8.624;2023-06-01T00:29:46;5.15;;;3.13;;
51010;SDS011;37038;50.182;8.624;2023-06-01T00:32:34;6.72;;;2.90;;
51010;SDS011;37038;50.182;8.624;2023-06-01T00:35:22;6.55;;;3.08;;
51010;SDS011;37038;50.182;8.624;2023-06-01T00:38:10;5.47;;;3.22;;
51010;SDS011;37038;50.182;8.624;2023-06-01T00:40:58;4.63;;;2.88;;
51010;SDS011;37038;50.182;8.624;2023-06-01T00:43:46;7.85;;;3.40;;
51010;SDS011;37038;50.182;8.624;2023-06-01T00:46:36;7.28;;;3.25;;
51010;SDS011;37038;50.182;8.624;2023-06-01T00:49:25;5.47;;;3.50;;
51010;SDS011;37038;50.182;8.624;2023-06-01T00:52:13;9.63;;;3.70;;
51010;SDS011;37038;50.182;8.624;2023-06-01T00:55:02;9.10;;;3.97;;
51010;SDS011;37038;50.182;8.624;2023-06-01T00:57:54;7.63;;;3.30;;
51010;SDS011;37038;50.182;8.624;2023-06-01T01:00:42;7.43;;;3.83;;
51010;SDS011;37038;50.182;8.624;2023-06-01T01:03:30;6.43;;;3.22;;
51010;SDS011;37038;50.182;8.624;2023-06-01T01:06:25;6.85;;;3.22;;
51010;SDS011;37038;50.182;8.624;2023-06-01T01:09:39;4.80;;;3.03;;
51010;SDS011;37038;50.182;8.624;2023-06-01T01:22:39;5.03;;;3.75;;
51010;SDS011;37038;50.182;8.624;2023-06-01T01:28:51;6.13;;;3.65;;
51010;SDS011;37038;50.182;8.624;2023-06-01T01:31:47;4.38;;;3.20;;
51010;SDS011;37038;50.182;8.624;2023-06-01T01:34:39;6.57;;;3.78;;
51010;SDS011;37038;50.182;8.624;2023-06-01T01:37:32;5.90;;;3.60;;
51010;SDS011;37038;50.182;8.624;2023-06-01T01:40:21;8.20;;;4.15;;
51010;SDS011;37038;50.182;8.624;2023-06-01T01:43:09;4.88;;;3.40;;
51010;SDS011;37038;50.182;8.624;2023-06-01T01:46:09;8.07;;;3.80;;
51010;SDS011;37038;50.182;8.624;2023-06-01T01:55:04;6.55;;;3.80;;
51010;SDS011;37038;50.182;8.624;2023-06-01T01:57:54;6.72;;;3.78;;
51010;SDS011;37038;50.182;8.624;2023-06-01T02:00:43;6.70;;;3.33;;
51010;SDS011;37038;50.182;8.624;2023-06-01T02:03:32;8.55;;;3.92;;
51010;SDS011;37038;50.182;8.624;2023-06-01T02:06:20;6.50;;;2.97;;
51010;SDS011;37038;50.182;8.624;2023-06-01T02:09:08;6.43;;;3.35;;
51010;SDS011;37038;50.182;8.624;2023-06-01T02:11:56;4.90;;;3.47;;
51010;SDS011;37038;50.182;8.624;2023-06-01T02:14:43;7.45;;;3.47;;
51010;SDS011;37038;50.182;8.624;2023-06-01T02:17:33;6.53;;;4.00;;
51010;SDS011;37038;50.182;8.624;2023-06-01T02:20:22;6.03;;;3.63;;
51010;SDS011;37038;50.182;8.624;2023-06-01T02:23:09;7.90;;;4.03;;
51010;SDS011;37038;50.182;8.624;2023-06-01T02:25:57;6.85;;;3.72;;
51010;SDS011;37038;50.182;8.624;2023-06-01T02:28:45;7.00;;;3.83;;
51010;SDS011;37038;50.182;8.624;2023-06-01T02:31:36;6.53;;;3.83;;
51010;SDS011;37038;50.182;8.624;2023-06-01T02:34:24;6.10;;;3.20;;
51010;SDS011;37038;50.182;8.624;2023-06-01T02:37:12;9.15;;;4.05;;
51010;SDS011;37038;50.182;8.624;2023-06-01T02:40:00;5.55;;;4.03;;
51010;SDS011;37038;50.182;8.624;2023-06-01T02:42:48;6.97;;;3.40;;
51010;SDS011;37038;50.182;8.624;2023-06-01T02:45:35;7.07;;;4.18;;
51010;SDS011;37038;50.182;8.624;2023-06-01T02:48:25;7.22;;;3.30;;
51010;SDS011;37038;50.182;8.624;2023-06-01T02:51:13;7.78;;;3.67;;
51010;SDS011;37038;50.182;8.624;2023-06-01T02:54:02;7.38;;;4.00;;
51010;SDS011;37038;50.182;8.624;2023-06-01T02:56:51;6.50;;;3.78;;
51010;SDS011;37038;50.182;8.624;2023-06-01T02:59:38;9.75;;;3.67;;
51010;SDS011;37038;50.182;8.624;2023-06-01T03:02:26;8.80;;;3.83;;
51010;SDS011;37038;50.182;8.624;2023-06-01T03:05:14;6.35;;;3.53;;
51010;SDS011;37038;50.182;8.624;2023-06-01T03:08:04;8.02;;;4.30;;
51010;SDS011;37038;50.182;8.624;2023-06-01T03:10:53;7.88;;;4.28;;
51010;SDS011;37038;50.182;8.624;2023-06-01T03:13:41;6.90;;;3.90;;
51010;SDS011;37038;50.182;8.624;2023-06-01T03:16:28;6.90;;;4.38;;
51010;SDS011;37038;50.182;8.624;2023-06-01T03:19:16;7.88;;;3.53;;
51010;SDS011;37038;50.182;8.624;2023-06-01T03:22:04;5.57;;;3.90;;
51010;SDS011;37038;50.182;8.624;2023-06-01T03:24:52;8.18;;;4.13;;
51010;SDS011;37038;50.182;8.624;2023-06-01T03:27:42;6.85;;;3.80;;
51010;SDS011;37038;50.182;8.624;2023-06-01T03:30:29;7.35;;;3.88;;
51010;SDS011;37038;50.182;8.624;2023-06-01T03:33:18;8.05;;;4.22;;
51010;SDS011;37038;50.182;8.624;2023-06-01T03:36:05;10.27;;;3.80;;
51010;SDS011;37038;50.182;8.624;2023-06-01T03:38:54;7.60;;;3.42;;
51010;SDS011;37038;50.182;8.624;2023-06-01T03:41:50;9.02;;;4.03;;
51010;SDS011;37038;50.182;8.624;2023-06-01T03:44:39;8.68;;;4.78;;
51010;SDS011;37038;50.182;8.624;2023-06-01T03:47:28;4.60;;;3.53;;
51010;SDS011;37038;50.182;8.624;2023-06-01T03:50:15;7.03;;;3.80;;
51010;SDS011;37038;50.182;8.624;2023-06-01T03:53:03;5.53;;;3.35;;
51010;SDS011;37038;50.182;8.624;2023-06-01T03:55:51;6.43;;;4.13;;
51010;SDS011;37038;50.182;8.624;2023-06-01T03:58:39;7.88;;;3.83;;
51010;SDS011;37038;50.182;8.624;2023-06-01T04:01:27;7.72;;;4.22;;
51010;SDS011;37038;50.182;8.624;2023-06-01T04:04:17;10.20;;;4.40;;
51010;SDS011;37038;50.182;8.624;2023-06-01T04:07:08;7.25;;;3.80;;
51010;SDS011;37038;50.182;8.624;2023-06-01T04:09:56;7.72;;;4.28;;
51010;SDS011;37038;50.182;8.624;2023-06-01T04:12:47;6.13;;;3.75;;
51010;SDS011;37038;50.182;8.624;2023-06-01T04:15:36;7.57;;;4.07;;
51010;SDS011;37038;50.182;8.624;2023-06-01T04:18:23;4.30;;;3.55;;
51010;SDS011;37038;50.182;8.624;2023-06-01T04:21:11;6.05;;;4.10;;
51010;SDS011;37038;50.182;8.624;2023-06-01T04:24:02;7.03;;;3.63;;
51010;SDS011;37038;50.182;8.624;2023-06-01T04:26:50;6.60;;;3.75;;
51010;SDS011;37038;50.182;8.624;2023-06-01T04:29:37;8.90;;;3.90;;
51010;SDS011;37038;50.182;8.624;2023-06-01T04:32:27;4.28;;;3.35;;
51010;SDS011;37038;50.182;8.624;2023-06-01T04:35:14;8.90;;;3.80;;
51010;SDS011;37038;50.182;8.624;2023-06-01T04:38:03;10.90;;;3.28;;
51010;SDS011;37038;50.182;8.624;2023-06-01T04:40:50;7.15;;;4.30;;
51010;SDS011;37038;50.182;8.624;2023-06-01T04:43:40;6.00;;;3.85;;
51010;SDS011;37038;50.182;8.624;2023-06-01T04:46:29;7.72;;;4.00;;
51010;SDS011;37038;50.182;8.624;2023-06-01T04:49:18;4.35;;;3.95;;
51010;SDS011;37038;50.182;8.624;2023-06-01T04:52:07;5.60;;;3.58;;
51010;SDS011;37038;50.182;8.624;2023-06-01T04:54:57;8.95;;;3.65;;
51010;SDS011;37038;50.182;8.624;2023-06-01T04:57:44;5.13;;;3.42;;
51010;SDS011;37038;50.182;8.624;2023-06-01T05:00:33;4.53;;;3.50;;
51010;SDS011;37038;50.182;8.624;2023-06-01T05:03:29;7.78;;;3.65;;
51010;SDS011;37038;50.182;8.624;2023-06-01T05:06:20;11.85;;;4.15;;
51010;SDS011;37038;50.182;8.624;2023-06-01T05:09:08;7.85;;;3.83;;
51010;SDS011;37038;50.182;8.624;2023-06-01T05:12:00;15.63;;;4.13;;
51010;SDS011;37038;50.182;8.624;2023-06-01T05:14:49;6.28;;;3.53;;
51010;SDS011;37038;50.182;8.624;2023-06-01T05:17:39;10.80;;;3.72;;
51010;SDS011;37038;50.182;8.624;2023-06-01T05:20:31;5.03;;;3.20;;
51010;SDS011;37038;50.182;8.624;2023-06-01T05:23:23;7.60;;;3.33;;
51010;SDS011;37038;50.182;8.624;2023-06-01T05:26:15;10.30;;;3.35;;
51010;SDS011;37038;50.182;8.624;2023-06-01T05:29:06;6.27;;;2.73;;
51010;SDS011;37038;50.182;8.624;2023-06-01T05:31:56;6.82;;;2.92;;
51010;SDS011;37038;50.182;8.624;2023-06-01T05:34:45;4.47;;;3.28;;
51010;SDS011;37038;50.182;8.624;2023-06-01T05:37:37;3.13;;;2.63;;
51010;SDS011;37038;50.182;8.624;2023-06-01T05:40:27;10.30;;;3.38;;
51010;SDS011;37038;50.182;8.624;2023-06-01T05:43:18;7.57;;;3.10;;
51010;SDS011;37038;50.182;8.624;2023-06-01T05:46:08;6.47;;;2.80;;
51010;SDS011;37038;50.182;8.624;2023-06-01T05:49:07;4.68;;;2.30;;
51010;SDS011;37038;50.182;8.624;2023-06-01T05:51:59;5.38;;;2.72;;
51010;SDS011;37038;50.182;8.624;2023-06-01T05:54:49;10.50;;;2.83;;
51010;SDS011;37038;50.182;8.624;2023-06-01T05:57:42;9.68;;;3.00;;
51010;SDS011;37038;50.182;8.624;2023-06-01T06:00:34;7.82;;;2.53;;
51010;SDS011;37038;50.182;8.624;2023-06-01T06:03:26;5.43;;;2.55;;
51010;SDS011;37038;50.182;8.624;2023-06-01T06:06:22;6.53;;;3.10;;
51010;SDS011;37038;50.182;8.624;2023-06-01T06:09:11;4.65;;;2.58;;
51010;SDS011;37038;50.182;8.624;2023-06-01T06:12:02;10.57;;;2.42;;
51010;SDS011;37038;50.182;8.624;2023-06-01T06:14:51;4.88;;;2.60;;
51010;SDS011;37038;50.182;8.624;2023-06-01T06:17:42;8.52;;;2.90;;
51010;SDS011;37038;50.182;8.624;2023-06-01T06:20:34;3.58;;;2.55;;
51010;SDS011;37038;50.182;8.624;2023-06-01T06:23:24;4.97;;;2.60;;
51010;SDS011;37038;50.182;8.624;2023-06-01T06:26:18;4.20;;;2.53;;
51010;SDS011;37038;50.182;8.624;2023-06-01T06:29:08;6.70;;;2.60;;
51010;SDS011;37038;50.182;8.624;2023-06-01T06:32:08;6.30;;;2.83;;
51010;SDS011;37038;50.182;8.624;2023-06-01T06:34:57;9.63;;;2.50;;
51010;SDS011;37038;50.182;8.624;2023-06-01T06:37:52;4.93;;;2.42;;
51010;SDS011;37038;50.182;8.624;2023-06-01T06:40:43;3.92;;;2.22;;
51010;SDS011;37038;50.182;8.624;2023-06-01T06:43:33;4.65;;;2.60;;
51010;SDS011;37038;50.182;8.624;2023-06-01T06:46:22;5.30;;;2.80;;
51010;SDS011;37038;50.182;8.624;2023-06-01T06:49:12;4.55;;;2.33;;
51010;SDS011;37038;50.182;8.624;2023-06-01T06:52:05;8.23;;;2.30;;
51010;SDS011;37038;50.182;8.624;2023-06-01T06:54:59;4.80;;;2.75;;
51010;SDS011;37038;50.182;8.624;2023-06-01T07:00:40;7.70;;;2.95;;
51010;SDS011;37038;50.182;8.624;2023-06-01T07:03:31;6.28;;;2.65;;
51010;SDS011;37038;50.182;8.624;2023-06-01T07:06:23;5.85;;;2.55;;
51010;SDS011;37038;50.182;8.624;2023-06-01T07:09:11;4.95;;;2.75;;
51010;SDS011;37038;50.182;8.624;2023-06-01T07:12:02;5.72;;;2.25;;
51010;SDS011;37038;50.182;8.624;2023-06-01T07:14:50;6.20;;;2.40;;
51010;SDS011;37038;50.182;8.624;2023-06-01T07:17:39;5.78;;;2.20;;
51010;SDS011;37038;50.182;8.624;2023-06-01T07:20:29;6.90;;;2.20;;
51010;SDS011;37038;50.182;8.624;2023-06-01T07:23:21;5.05;;;2.58;;
51010;SDS011;37038;50.182;8.624;2023-06-01T07:26:13;3.30;;;2.40;;
51010;SDS011;37038;50.182;8.624;2023-06-01T07:29:05;2.63;;;2.25;;
51010;SDS011;37038;50.182;8.624;2023-06-01T07:34:45;6.70;;;2.33;;
51010;SDS011;37038;50.182;8.624;2023-06-01T07:37:37;3.17;;;2.20;;
51010;SDS011;37038;50.182;8.624;2023-06-01T07:40:29;3.97;;;1.90;;
51010;SDS011;37038;50.182;8.624;2023-06-01T07:43:19;5.90;;;2.08;;
51010;SDS011;37038;50.182;8.624;2023-06-01T07:46:08;4.95;;;2.78;;
51010;SDS011;37038;50.182;8.624;2023-06-01T07:48:58;4.80;;;2.30;;
51010;SDS011;37038;50.182;8.624;2023-06-01T07:51:48;4.45;;;2.35;;
51010;SDS011;37038;50.182;8.624;2023-06-01T07:54:42;5.53;;;2.22;;
51010;SDS011;37038;50.182;8.624;2023-06-01T07:57:37;5.05;;;2.63;;
51010;SDS011;37038;50.182;8.624;2023-06-01T08:03:19;4.18;;;2.58;;
51010;SDS011;37038;50.182;8.624;2023-06-01T08:06:16;5.95;;;2.28;;
51010;SDS011;37038;50.182;8.624;2023-06-01T08:09:11;4.63;;;2.50;;
51010;SDS011;37038;50.182;8.624;2023-06-01T08:12:03;6.00;;;2.58;;
51010;SDS011;37038;50.182;8.624;2023-06-01T08:14:51;9.07;;;2.90;;
51010;SDS011;37038;50.182;8.624;2023-06-01T08:17:41;5.10;;;2.90;;
51010;SDS011;37038;50.182;8.624;2023-06-01T08:20:32;8.05;;;2.40;;
51010;SDS011;37038;50.182;8.624;2023-06-01T08:23:23;6.28;;;2.40;;
51010;SDS011;37038;50.182;8.624;2023-06-01T08:29:07;3.55;;;2.42;;
51010;SDS011;37038;50.182;8.624;2023-06-01T08:31:58;4.45;;;2.50;;
51010;SDS011;37038;50.182;8.624;2023-06-01T08:34:49;8.20;;;2.90;;
51010;SDS011;37038;50.182;8.624;2023-06-01T08:37:38;3.10;;;2.25;;
51010;SDS011;37038;50.182;8.624;2023-06-01T08:40:29;5.97;;;2.80;;
51010;SDS011;37038;50.182;8.624;2023-06-01T08:43:22;7.97;;;2.67;;
51010;SDS011;37038;50.182;8.624;2023-06-01T08:46:21;6.68;;;2.35;;
51010;SDS011;37038;50.182;8.624;2023-06-01T08:49:11;4.60;;;2.35;;
51010;SDS011;37038;50.182;8.624;2023-06-01T08:52:04;5.40;;;2.40;;
51010;SDS011;37038;50.182;8.624;2023-06-01T08:55:02;5.13;;;2.50;;
51010;SDS011;37038;50.182;8.624;2023-06-01T08:57:53;4.20;;;2.53;;
51010;SDS011;37038;50.182;8.624;2023-06-01T09:00:49;5.82;;;2.33;;
51010;SDS011;37038;50.182;8.624;2023-06-01T09:03:41;6.85;;;2.47;;
51010;SDS011;37038;50.182;8.624;2023-06-01T09:06:30;7.13;;;2.35;;
51010;SDS011;37038;50.182;8.624;2023-06-01T09:09:21;6.35;;;2.40;;
51010;SDS011;37038;50.182;8.624;2023-06-01T09:12:24;5.63;;;2.28;;
51010;SDS011;37038;50.182;8.624;2023-06-01T09:15:23;4.43;;;2.30;;
51010;SDS011;37038;50.182;8.624;2023-06-01T09:18:14;6.18;;;2.25;;
51010;SDS011;37038;50.182;8.624;2023-06-01T09:21:10;5.15;;;2.28;;
51010;SDS011;37038;50.182;8.624;2023-06-01T09:24:18;7.30;;;2.40;;
51010;SDS011;37038;50.182;8.624;2023-06-01T09:27:10;5.55;;;2.35;;
51010;SDS011;37038;50.182;8.624;2023-06-01T09:30:00;5.32;;;2.50;;
51010;SDS011;37038;50.182;8.624;2023-06-01T09:36:03;3.45;;;2.03;;
51010;SDS011;37038;50.182;8.624;2023-06-01T09:39:01;7.07;;;2.10;;
51010;SDS011;37038;50.182;8.624;2023-06-01T09:41:55;2.30;;;1.75;;
51010;SDS011;37038;50.182;8.624;2023-06-01T09:44:49;3.60;;;1.70;;
51010;SDS011;37038;50.182;8.624;2023-06-01T09:47:39;5.43;;;2.17;;
51010;SDS011;37038;50.182;8.624;2023-06-01T09:50:46;3.85;;;2.20;;
51010;SDS011;37038;50.182;8.624;2023-06-01T09:53:41;5.28;;;2.00;;
51010;SDS011;37038;50.182;8.624;2023-06-01T09:56:42;4.90;;;2.50;;
51010;SDS011;37038;50.182;8.624;2023-06-01T09:59:40;4.55;;;1.77;;
51010;SDS011;37038;50.182;8.624;2023-06-01T10:02:35;3.97;;;1.95;;
51010;SDS011;37038;50.182;8.624;2023-06-01T10:05:30;4.57;;;2.15;;
51010;SDS011;37038;50.182;8.624;2023-06-01T10:08:24;5.47;;;2.10;;
51010;SDS011;37038;50.182;8.624;2023-06-01T10:11:17;3.55;;;1.92;;
51010;SDS011;37038;50.182;8.624;2023-06-01T10:14:07;4.93;;;2.15;;
51010;SDS011;37038;50.182;8.624;2023-06-01T10:17:00;3.58;;;1.80;;
51010;SDS011;37038;50.182;8.624;2023-06-01T10:19:51;5.68;;;2.00;;
51010;SDS011;37038;50.182;8.624;2023-06-01T10:22:46;5.95;;;1.98;;
51010;SDS011;37038;50.182;8.624;2023-06-01T10:25:40;4.93;;;1.88;;
51010;SDS011;37038;50.182;8.624;2023-06-01T10:28:36;5.03;;;2.42;;
51010;SDS011;37038;50.182;8.624;2023-06-01T10:31:39;3.67;;;2.10;;
51010;SDS011;37038;50.182;8.624;2023-06-01T10:34:39;8.18;;;1.83;;
51010;SDS011;37038;50.182;8.624;2023-06-01T10:37:35;3.95;;;2.00;;
51010;SDS011;37038;50.182;8.624;2023-06-01T10:40:27;5.90;;;2.10;;
51010;SDS011;37038;50.182;8.624;2023-06-01T10:46:40;4.90;;;2.30;;
51010;SDS011;37038;50.182;8.624;2023-06-01T10:52:43;4.00;;;1.83;;
51010;SDS011;37038;50.182;8.624;2023-06-01T10:55:35;3.03;;;1.60;;
51010;SDS011;37038;50.182;8.624;2023-06-01T11:01:19;4.20;;;2.30;;
51010;SDS011;37038;50.182;8.624;2023-06-01T11:04:10;2.70;;;1.70;;
51010;SDS011;37038;50.182;8.624;2023-06-01T11:07:48;3.83;;;2.10;;
51010;SDS011;37038;50.182;8.624;2023-06-01T11:13:44;3.30;;;2.10;;
51010;SDS011;37038;50.182;8.624;2023-06-01T11:17:24;4.07;;;2.20;;
51010;SDS011;37038;50.182;8.624;2023-06-01T11:20:15;3.38;;;2.30;;
51010;SDS011;37038;50.182;8.624;2023-06-01T11:23:11;4.47;;;2.08;;
51010;SDS011;37038;50.182;8.624;2023-06-01T11:26:05;6.30;;;2.45;;
51010;SDS011;37038;50.182;8.624;2023-06-01T11:29:02;5.47;;;2.33;;
51010;SDS011;37038;50.182;8.624;2023-06-01T11:31:57;3.28;;;2.10;;
51010;SDS011;37038;50.182;8.624;2023-06-01T11:34:49;3.25;;;1.70;;
51010;SDS011;37038;50.182;8.624;2023-06-01T11:37:39;3.58;;;2.10;;
51010;SDS011;37038;50.182;8.624;2023-06-01T11:40:29;7.03;;;2.85;;
51010;SDS011;37038;50.182;8.624;2023-06-01T11:43:27;4.40;;;2.40;;
51010;SDS011;37038;50.182;8.624;2023-06-01T11:46:19;5.00;;;2.50;;
51010;SDS011;37038;50.182;8.624;2023-06-01T11:49:10;2.90;;;1.92;;
51010;SDS011;37038;50.182;8.624;2023-06-01T11:52:02;3.17;;;2.10;;
51010;SDS011;37038;50.182;8.624;2023-06-01T11:54:51;1.98;;;1.63;;
51010;SDS011;37038;50.182;8.624;2023-06-01T11:57:42;4.32;;;2.28;;
51010;SDS011;37038;50.182;8.624;2023-06-01T12:00:37;6.90;;;2.47;;
51010;SDS011;37038;50.182;8.624;2023-06-01T12:03:28;6.38;;;2.33;;
51010;SDS011;37038;50.182;8.624;2023-06-01T12:06:22;9.20;;;2.65;;
51010;SDS011;37038;50.182;8.624;2023-06-01T12:09:22;3.60;;;2.33;;
51010;SDS011;37038;50.182;8.624;2023-06-01T12:12:14;2.28;;;2.08;;
51010;SDS011;37038;50.182;8.624;2023-06-01T12:15:07;3.97;;;1.90;;
51010;SDS011;37038;50.182;8.624;2023-06-01T12:17:56;3.35;;;1.90;;
51010;SDS011;37038;50.182;8.624;2023-06-01T12:20:48;5.50;;;1.90;;
51010;SDS011;37038;50.182;8.624;2023-06-01T12:23:38;3.90;;;2.33;;
51010;SDS011;37038;50.182;8.624;2023-06-01T12:26:37;3.03;;;2.10;;
51010;SDS011;37038;50.182;8.624;2023-06-01T12:29:36;5.93;;;2.50;;
51010;SDS011;37038;50.182;8.624;2023-06-01T12:32:44;6.55;;;2.00;;
51010;SDS011;37038;50.182;8.624;2023-06-01T12:35:47;4.82;;;2.22;;
51010;SDS011;37038;50.182;8.624;2023-06-01T12:38:50;3.30;;;2.13;;
51010;SDS011;37038;50.182;8.624;2023-06-01T12:41:48;2.72;;;2.28;;
51010;SDS011;37038;50.182;8.624;2023-06-01T12:44:41;5.72;;;2.10;;
51010;SDS011;37038;50.182;8.624;2023-06-01T12:47:40;7.05;;;1.85;;
51010;SDS011;37038;50.182;8.624;2023-06-01T12:50:32;3.90;;;2.20;;
51010;SDS011;37038;50.182;8.624;2023-06-01T12:53:31;4.68;;;1.90;;
51010;SDS011;37038;50.182;8.624;2023-06-01T12:56:23;6.00;;;1.90;;
51010;SDS011;37038;50.182;8.624;2023-06-01T12:59:14;5.10;;;2.30;;
51010;SDS011;37038;50.182;8.624;2023-06-01T13:02:10;2.85;;;2.03;;
51010;SDS011;37038;50.182;8.624;2023-06-01T13:05:03;3.72;;;2.00;;
51010;SDS011;37038;50.182;8.624;2023-06-01T13:07:56;7.20;;;2.50;;
51010;SDS011;37038;50.182;8.624;2023-06-01T13:13:39;5.60;;;2.42;;
51010;SDS011;37038;50.182;8.624;2023-06-01T13:16:32;4.47;;;2.08;;
51010;SDS011;37038;50.182;8.624;2023-06-01T13:19:24;3.55;;;1.85;;
51010;SDS011;37038;50.182;8.624;2023-06-01T13:22:16;3.08;;;2.22;;
51010;SDS011;37038;50.182;8.624;2023-06-01T13:25:09;6.32;;;2.15;;
51010;SDS011;37038;50.182;8.624;2023-06-01T13:28:04;6.43;;;2.22;;
51010;SDS011;37038;50.182;8.624;2023-06-01T13:31:01;5.53;;;2.15;;
51010;SDS011;37038;50.182;8.624;2023-06-01T13:33:53;3.13;;;1.83;;
51010;SDS011;37038;50.182;8.624;2023-06-01T13:36:45;3.38;;;2.22;;
51010;SDS011;37038;50.182;8.624;2023-06-01T13:39:39;4.07;;;2.10;;
51010;SDS011;37038;50.182;8.624;2023-06-01T13:42:29;5.53;;;2.30;;
51010;SDS011;37038;50.182;8.624;2023-06-01T13:45:23;4.60;;;1.92;;
51010;SDS011;37038;50.182;8.624;2023-06-01T13:48:20;2.85;;;1.88;;
51010;SDS011;37038;50.182;8.624;2023-06-01T13:51:10;5.20;;;2.03;;
51010;SDS011;37038;50.182;8.624;2023-06-01T13:54:01;2.97;;;1.80;;
51010;SDS011;37038;50.182;8.624;2023-06-01T13:56:52;4.50;;;2.20;;
51010;SDS011;37038;50.182;8.624;2023-06-01T13:59:44;2.22;;;2.00;;
51010;SDS011;37038;50.182;8.624;2023-06-01T14:02:36;5.07;;;2.28;;
51010;SDS011;37038;50.182;8.624;2023-06-01T14:05:26;4.80;;;2.20;;
51010;SDS011;37038;50.182;8.624;2023-06-01T14:08:37;3.90;;;2.20;;
51010;SDS011;37038;50.182;8.624;2023-06-01T14:11:28;3.80;;;2.30;;
51010;SDS011;37038;50.182;8.624;2023-06-01T14:14:20;4.93;;;2.00;;
51010;SDS011;37038;50.182;8.624;2023-06-01T14:17:10;4.63;;;2.35;;
51010;SDS011;37038;50.182;8.624;2023-06-01T14:20:00;5.20;;;1.92;;
51010;SDS011;37038;50.182;8.624;2023-06-01T14:22:54;3.88;;;2.10;;
51010;SDS011;37038;50.182;8.624;2023-06-01T14:25:45;5.35;;;1.95;;
51010;SDS011;37038;50.182;8.624;2023-06-01T14:28:35;2.47;;;1.73;;
51010;SDS011;37038;50.182;8.624;2023-06-01T14:31:25;3.85;;;1.95;;
51010;SDS011;37038;50.182;8.624;2023-06-01T14:34:15;8.43;;;2.00;;
51010;SDS011;37038;50.182;8.624;2023-06-01T14:37:08;6.47;;;1.90;;
51010;SDS011;37038;50.182;8.624;2023-06-01T14:40:02;3.55;;;2.25;;
51010;SDS011;37038;50.182;8.624;2023-06-01T14:42:50;3.40;;;2.03;;
51010;SDS011;37038;50.182;8.624;2023-06-01T14:45:40;5.15;;;2.38;;
51010;SDS011;37038;50.182;8.624;2023-06-01T14:48:30;5.45;;;2.10;;
51010;SDS011;37038;50.182;8.624;2023-06-01T14:51:20;7.40;;;2.65;;
51010;SDS011;37038;50.182;8.624;2023-06-01T14:54:12;3.47;;;2.42;;
51010;SDS011;37038;50.182;8.624;2023-06-01T14:57:14;5.13;;;2.72;;
51010;SDS011;37038;50.182;8.624;2023-06-01T15:00:06;5.78;;;2.10;;
51010;SDS011;37038;50.182;8.624;2023-06-01T15:02:57;3.40;;;2.28;;
51010;SDS011;37038;50.182;8.624;2023-06-01T15:05:48;3.43;;;2.17;;
51010;SDS011;37038;50.182;8.624;2023-06-01T15:08:41;5.20;;;2.38;;
51010;SDS011;37038;50.182;8.624;2023-06-01T15:14:23;7.47;;;2.53;;
51010;SDS011;37038;50.182;8.624;2023-06-01T15:17:15;6.45;;;2.72;;
51010;SDS011;37038;50.182;8.624;2023-06-01T15:20:04;3.10;;;2.42;;
51010;SDS011;37038;50.182;8.624;2023-06-01T15:22:56;4.95;;;2.33;;
51010;SDS011;37038;50.182;8.624;2023-06-01T15:25:47;3.08;;;2.40;;
51010;SDS011;37038;50.182;8.624;2023-06-01T15:28:36;8.82;;;2.60;;
51010;SDS011;37038;50.182;8.624;2023-06-01T15:31:30;5.75;;;2.50;;
51010;SDS011;37038;50.182;8.624;2023-06-01T15:34:22;4.00;;;2.30;;
51010;SDS011;37038;50.182;8.624;2023-06-01T15:37:12;3.65;;;2.40;;
51010;SDS011;37038;50.182;8.624;2023-06-01T15:40:06;4.43;;;2.17;;
51010;SDS011;37038;50.182;8.624;2023-06-01T15:43:02;5.70;;;2.67;;
51010;SDS011;37038;50.182;8.624;2023-06-01T15:45:51;4.50;;;2.55;;
51010;SDS011;37038;50.182;8.624;2023-06-01T15:48:43;5.68;;;3.15;;
51010;SDS011;37038;50.182;8.624;2023-06-01T15:51:34;6.50;;;2.85;;
51010;SDS011;37038;50.182;8.624;2023-06-01T15:54:24;4.50;;;2.63;;
51010;SDS011;37038;50.182;8.624;2023-06-01T15:57:15;4.30;;;2.97;;
51010;SDS011;37038;50.182;8.624;2023-06-01T16:00:05;4.75;;;3.60;;
51010;SDS011;37038;50.182;8.624;2023-06-01T16:02:56;5.95;;;4.07;;
51010;SDS011;37038;50.182;8.624;2023-06-01T16:05:47;4.97;;;4.15;;
51010;SDS011;37038;50.182;8.624;2023-06-01T16:08:38;5.38;;;4.55;;
51010;SDS011;37038;50.182;8.624;2023-06-01T16:11:28;4.82;;;4.40;;
51010;SDS011;37038;50.182;8.624;2023-06-01T16:14:17;6.07;;;4.93;;
51010;SDS011;37038;50.182;8.624;2023-06-01T16:17:08;8.38;;;5.53;;
51010;SDS011;37038;50.182;8.624;2023-06-01T16:19:57;8.23;;;5.22;;
51010;SDS011;37038;50.182;8.624;2023-06-01T16:22:48;9.43;;;6.30;;
51010;SDS011;37038;50.182;8.624;2023-06-01T16:25:38;8.25;;;4.95;;
51010;SDS011;37038;50.182;8.624;2023-06-01T16:28:29;7.47;;;5.25;;
51010;SDS011;37038;50.182;8.624;2023-06-01T16:31:20;6.45;;;5.40;;
51010;SDS011;37038;50.182;8.624;2023-06-01T16:34:10;15.15;;;5.53;;
51010;SDS011;37038;50.182;8.624;2023-06-01T16:37:00;9.43;;;5.72;;
51010;SDS011;37038;50.182;8.624;2023-06-01T16:39:50;6.90;;;5.90;;
51010;SDS011;37038;50.182;8.624;2023-06-01T16:42:40;6.20;;;5.32;;
51010;SDS011;37038;50.182;8.624;2023-06-01T16:45:30;7.90;;;5.78;;
51010;SDS011;37038;50.182;8.624;2023-06-01T16:48:19;8.48;;;5.30;;
51010;SDS011;37038;50.182;8.624;2023-06-01T16:51:12;10.20;;;5.53;;
51010;SDS011;37038;50.182;8.624;2023-06-01T16:54:02;12.25;;;5.47;;
51010;SDS011;37038;50.182;8.624;2023-06-01T16:56:52;8.77;;;5.35;;
51010;SDS011;37038;50.182;8.624;2023-06-01T16:59:42;8.63;;;5.15;;
51010;SDS011;37038;50.182;8.624;2023-06-01T17:02:33;7.43;;;5.20;;
51010;SDS011;37038;50.182;8.624;2023-06-01T17:05:23;8.13;;;4.97;;
51010;SDS011;37038;50.182;8.624;2023-06-01T17:08:16;11.57;;;5.28;;
51010;SDS011;37038;50.182;8.624;2023-06-01T17:11:05;8.30;;;5.45;;
51010;SDS011;37038;50.182;8.624;2023-06-01T17:13:55;6.45;;;4.85;;
51010;SDS011;37038;50.182;8.624;2023-06-01T17:16:44;7.32;;;4.72;;
51010;SDS011;37038;50.182;8.624;2023-06-01T17:19:35;11.15;;;5.00;;
51010;SDS011;37038;50.182;8.624;2023-06-01T17:22:25;4.82;;;4.20;;
51010;SDS011;37038;50.182;8.624;2023-06-01T17:25:14;6.30;;;4.35;;
51010;SDS011;37038;50.182;8.624;2023-06-01T17:28:05;7.43;;;4.65;;
51010;SDS011;37038;50.182;8.624;2023-06-01T17:30:56;8.48;;;5.30;;
51010;SDS011;37038;50.182;8.624;2023-06-01T17:33:46;5.53;;;4.70;;
51010;SDS011;37038;50.182;8.624;2023-06-01T17:36:35;8.30;;;4.93;;
51010;SDS011;37038;50.182;8.624;2023-06-01T17:39:25;5.60;;;4.70;;
51010;SDS011;37038;50.182;8.624;2023-06-01T17:42:15;6.75;;;5.10;;
51010;SDS011;37038;50.182;8.624;2023-06-01T17:45:04;8.02;;;5.32;;
51010;SDS011;37038;50.182;8.624;2023-06-01T17:47:56;5.80;;;4.60;;
51010;SDS011;37038;50.182;8.624;2023-06-01T17:50:47;5.55;;;4.85;;
51010;SDS011;37038;50.182;8.624;2023-06-01T17:53:37;5.38;;;4.75;;
51010;SDS011;37038;50.182;8.624;2023-06-01T17:56:29;8.70;;;4.88;;
51010;SDS011;37038;50.182;8.624;2023-06-01T17:59:18;7.38;;;5.13;;
51010;SDS011;37038;50.182;8.624;2023-06-01T18:02:08;7.03;;;6.35;;
51010;SDS011;37038;50.182;8.624;2023-06-01T18:04:59;6.78;;;5.88;;
51010;SDS011;37038;50.182;8.624;2023-06-01T18:07:48;7.50;;;5.25;;